Volkel Air Base

METAR EDLV TAF EDLV
6 °C
°C
-
°C
21m
Alter
12:11:08
LT
11:11
UTC
0 ft

1.000

2.000

3.000

4.000

5.000

OVC 1.500
MVFR
<?= Yii::t('app', 'Wind direction') ?> <?= Yii::t('app', 'of'); ?>
240°
17:21
Sonne unter
81%
Luftfeuchtigkeit
Windscherung
Geschlossen/Schnee
RWY-Sichtweite
RWY Zustand
Vert. Sichtweite
Min. Sichtbarkeit
CAVOK
Trend
Korrektur
Besonderer Bericht
1021 hPa
QNH
METAR EDLV 311050Z 24015KT 9999 OVC015 06/03 Q1021
Himmel bedeckt
1 kt
1 kt
12:00
IFR
20 kt
13:00
IFR
20 kt
14:00
IFR
20 kt
15:00
IFR
20 kt
16:00
IFR
13 kt
17:00
IFR
13 kt
18:00
IFR
13 kt
10 km+
Sichtweite
1.500 ft
Wolkendecke
15 kt
Wind
metar-taf.com/EHVK

Metar-Taf.com

Visueller Decoder

Wir und Dritte verfolgen dein Internetverhalten auf unserer Website mit Cookies. Wenn du fortfährst, gehen wir davon aus, dass du mit unserer Cookie-Richtlinie einverstanden bist.